Time;durP1;ratioP1;P1;durP2;ratioP2;P2;SDS_P1;SDS_P2;PMS_P1;PMS_P2;Temp;Humidity;BMP_temperature;BMP_pressure;BME280_temperature;BME280_humidity;BME280_pressure;Samples;Min_cycle;Max_cycle;Signal;HPM_P1;HPM_P2
2022/06/28 00:01:53;;;;;;;0.60;0.10;;;19.80;99.90;;;;;;5015088;28;20441;-68
2022/06/28 00:04:21;;;;;;;0.60;0.10;;;19.80;99.90;;;;;;5015461;28;20848;-68
2022/06/28 00:06:49;;;;;;;0.70;0.37;;;19.80;99.90;;;;;;5015033;28;20559;-66
2022/06/28 00:09:17;;;;;;;0.60;0.10;;;19.80;99.90;;;;;;5015434;28;20472;-69
2022/06/28 00:11:46;;;;;;;0.60;0.10;;;19.90;99.90;;;;;;5027787;28;20842;-67
2022/06/28 00:17:00;;;;;;;0.60;0.20;;;19.90;99.90;;;;;;5034138;28;20447;-67
2022/06/28 00:19:28;;;;;;;0.60;0.10;;;19.80;99.90;;;;;;5034562;28;20973;-67
2022/06/28 00:21:56;;;;;;;0.60;0.20;;;19.80;99.90;;;;;;5034720;28;20439;-67
2022/06/28 00:24:24;;;;;;;0.60;0.20;;;19.80;99.90;;;;;;5028511;28;20468;-67
2022/06/28 00:26:53;;;;;;;0.60;0.10;;;19.80;99.90;;;;;;5015259;28;20448;-67
2022/06/28 00:29:21;;;;;;;0.60;0.10;;;19.80;99.90;;;;;;5034317;28;20443;-68
2022/06/28 00:31:49;;;;;;;0.60;0.10;;;19.80;99.90;;;;;;5034722;28;20447;-68
2022/06/28 00:34:17;;;;;;;0.60;0.20;;;19.80;99.90;;;;;;5034454;28;20507;-68
2022/06/28 00:36:45;;;;;;;0.60;0.10;;;19.70;99.90;;;;;;5034311;28;20439;-68
2022/06/28 00:39:13;;;;;;;0.60;0.10;;;19.70;99.90;;;;;;5034075;28;20447;-68
2022/06/28 00:41:43;;;;;;;0.60;0.10;;;19.70;99.90;;;;;;5035051;28;20443;-68
2022/06/28 00:44:13;;;;;;;0.60;0.10;;;19.60;99.90;;;;;;5034352;28;20679;-68
2022/06/28 00:46:41;;;;;;;0.60;0.10;;;19.50;99.90;;;;;;5034005;28;20454;-68
2022/06/28 00:49:10;;;;;;;0.60;0.10;;;19.40;99.90;;;;;;5021369;28;20452;-68
2022/06/28 00:51:39;;;;;;;0.60;0.20;;;19.40;99.90;;;;;;5014415;28;20436;-68
2022/06/28 00:54:08;;;;;;;0.60;0.10;;;19.40;99.90;;;;;;5014180;28;20488;-68
2022/06/28 00:56:36;;;;;;;0.60;0.10;;;19.40;99.90;;;;;;5013765;28;20448;-68
2022/06/28 00:59:04;;;;;;;0.60;0.10;;;19.30;99.90;;;;;;5025436;28;20458;-68
2022/06/28 01:01:33;;;;;;;0.60;0.10;;;19.30;99.90;;;;;;5032174;28;20462;-68
2022/06/28 01:04:01;;;;;;;0.60;0.20;;;19.30;99.90;;;;;;5033930;28;20919;-68
2022/06/28 01:06:29;;;;;;;0.60;0.10;;;19.30;99.90;;;;;;5034492;28;20448;-68
2022/06/28 01:08:57;;;;;;;0.60;0.10;;;19.20;1.00;;;;;;5035538;28;20448;-68
2022/06/28 01:11:28;;;;;;;0.60;0.13;;;19.20;1.00;;;;;;5023380;28;20475;-68
2022/06/28 01:14:00;;;;;;;0.60;0.10;;;19.20;1.00;;;;;;5014226;28;20495;-67
2022/06/28 01:16:28;;;;;;;0.60;0.10;;;19.20;1.00;;;;;;5028163;28;20463;-69
2022/06/28 01:18:58;;;;;;;0.60;0.20;;;19.00;1.00;;;;;;5033124;28;20447;-68
2022/06/28 01:21:28;;;;;;;0.60;0.20;;;19.00;1.00;;;;;;5032995;28;20456;-68
2022/06/28 01:23:58;;;;;;;0.60;0.10;;;18.80;1.00;;;;;;5034256;28;20463;-69
2022/06/28 01:26:26;;;;;;;0.60;0.10;;;18.80;1.00;;;;;;5034198;28;20452;-68
2022/06/28 01:28:54;;;;;;;0.60;0.20;;;18.70;1.00;;;;;;5017010;28;20450;-68
2022/06/28 01:31:23;;;;;;;0.60;0.10;;;18.70;1.00;;;;;;5013905;28;20483;-69
2022/06/28 01:33:52;;;;;;;0.60;0.20;;;18.70;1.00;;;;;;5013746;28;20496;-67
2022/06/28 01:36:21;;;;;;;0.60;0.20;;;18.60;1.00;;;;;;5013117;28;20451;-68
2022/06/28 01:38:49;;;;;;;0.60;0.10;;;18.60;1.00;;;;;;5029088;28;20458;-67
2022/06/28 01:44:12;;;;;;;0.60;0.10;;;18.50;1.00;;;;;;5029849;28;20538;-68
2022/06/28 01:46:41;;;;;;;0.60;0.20;;;18.50;1.00;;;;;;5029534;28;20471;-68
2022/06/28 01:49:08;;;;;;;0.60;0.10;;;18.50;1.00;;;;;;5029400;28;20460;-68
2022/06/28 01:51:36;;;;;;;0.60;0.20;;;18.40;1.00;;;;;;5029935;28;20454;-68
2022/06/28 01:54:05;;;;;;;0.60;0.10;;;18.40;1.00;;;;;;5029433;28;20459;-68
2022/06/28 01:56:33;;;;;;;0.60;0.20;;;18.30;1.00;;;;;;5026273;28;20445;-68
2022/06/28 01:59:01;;;;;;;0.60;0.10;;;18.20;1.00;;;;;;5030099;28;20452;-68
2022/06/28 02:01:30;;;;;;;0.60;0.10;;;18.20;1.00;;;;;;5030596;28;20447;-67
2022/06/28 02:03:58;;;;;;;0.60;0.10;;;18.20;1.00;;;;;;5030101;28;20490;-68
2022/06/28 02:06:26;;;;;;;0.60;0.10;;;18.20;1.00;;;;;;5029161;28;20448;-67
2022/06/28 02:08:54;;;;;;;0.60;0.10;;;18.20;1.00;;;;;;5030065;28;20454;-68
2022/06/28 02:11:22;;;;;;;0.60;0.13;;;18.30;1.00;;;;;;5030010;28;20447;-68
2022/06/28 02:13:49;;;;;;;0.60;0.20;;;18.30;1.00;;;;;;5029500;28;20550;-68
2022/06/28 02:16:18;;;;;;;0.60;0.10;;;18.30;1.00;;;;;;5028832;28;20965;-67
2022/06/28 02:18:47;;;;;;;0.60;0.10;;;18.30;1.00;;;;;;5010806;28;20939;-67
2022/06/28 02:21:15;;;;;;;0.60;0.10;;;18.30;1.00;;;;;;5009107;28;20448;-67
2022/06/28 02:23:43;;;;;;;0.60;0.10;;;18.30;1.00;;;;;;5009498;28;20488;-68
2022/06/28 02:26:11;;;;;;;0.60;0.10;;;18.30;1.00;;;;;;5008790;28;20479;-68
2022/06/28 02:28:39;;;;;;;0.60;0.20;;;18.20;1.00;;;;;;5040360;28;20849;-68
2022/06/28 02:31:09;;;;;;;0.60;0.10;;;18.20;1.00;;;;;;5050089;28;20447;-68
2022/06/28 02:33:38;;;;;;;0.60;0.10;;;18.10;1.00;;;;;;5049272;28;20969;-68
2022/06/28 02:41:39;;;;;;;0.60;0.10;;;17.70;1.00;;;;;;5008617;28;20942;-68
2022/06/28 02:44:07;;;;;;;0.60;0.10;;;17.70;1.00;;;;;;5027741;28;20486;-68
2022/06/28 02:46:35;;;;;;;0.60;0.10;;;17.60;1.00;;;;;;5031382;28;20455;-67
2022/06/28 02:49:03;;;;;;;0.60;0.10;;;17.60;1.00;;;;;;5049532;28;20443;-67
2022/06/28 02:51:33;;;;;;;0.60;0.10;;;17.50;1.00;;;;;;5048650;28;20446;-68
2022/06/28 02:54:01;;;;;;;0.60;0.20;;;17.50;1.00;;;;;;5043257;28;20458;-68
2022/06/28 02:56:29;;;;;;;0.60;0.20;;;17.50;1.00;;;;;;5021851;28;20451;-69
2022/06/28 02:58:56;;;;;;;0.60;0.20;;;17.50;1.00;;;;;;5032817;28;20447;-69
2022/06/28 03:01:24;;;;;;;0.60;0.10;;;17.60;1.00;;;;;;5034481;28;20968;-69
2022/06/28 03:03:52;;;;;;;0.60;0.10;;;17.60;1.00;;;;;;5034553;28;20907;-69
2022/06/28 03:06:20;;;;;;;0.60;0.10;;;17.60;1.00;;;;;;5033857;28;20450;-70
2022/06/28 03:08:49;;;;;;;0.60;0.10;;;17.70;1.00;;;;;;5034893;28;20448;-67
2022/06/28 03:11:17;;;;;;;0.60;0.10;;;17.70;1.00;;;;;;5026878;28;20444;-68
2022/06/28 03:13:45;;;;;;;0.60;0.10;;;17.70;1.00;;;;;;5014661;28;20467;-68
2022/06/28 03:16:13;;;;;;;0.60;0.20;;;17.70;1.00;;;;;;5026298;28;20799;-68
2022/06/28 03:18:41;;;;;;;0.60;0.10;;;17.70;1.00;;;;;;5034477;28;20443;-68
2022/06/28 03:21:09;;;;;;;0.60;0.20;;;17.60;1.00;;;;;;5034615;28;20454;-68
2022/06/28 03:23:36;;;;;;;0.60;0.10;;;17.70;1.00;;;;;;5028629;28;20990;-68
2022/06/28 03:26:06;;;;;;;0.60;0.10;;;17.70;1.00;;;;;;5023694;28;20458;-68
2022/06/28 03:28:34;;;;;;;0.60;0.10;;;17.70;1.00;;;;;;5044812;28;20445;-69
2022/06/28 03:31:01;;;;;;;0.60;0.10;;;17.70;1.00;;;;;;5054238;28;20445;-69
2022/06/28 03:33:29;;;;;;;0.60;0.10;;;17.80;1.00;;;;;;5054222;28;20467;-69
2022/06/28 03:35:57;;;;;;;0.60;0.10;;;17.80;1.00;;;;;;5042719;28;20516;-68
2022/06/28 03:38:25;;;;;;;0.60;0.10;;;17.90;1.00;;;;;;5033466;28;20500;-68
2022/06/28 03:40:53;;;;;;;0.60;0.10;;;18.00;1.00;;;;;;5033938;28;20447;-69
2022/06/28 03:43:22;;;;;;;0.60;0.10;;;17.90;1.00;;;;;;5034063;28;20490;-69
2022/06/28 03:45:50;;;;;;;0.60;0.30;;;17.90;1.00;;;;;;5025228;28;20502;-68
2022/06/28 03:48:18;;;;;;;0.60;0.10;;;17.90;1.00;;;;;;5029032;28;20943;-67
2022/06/28 03:50:46;;;;;;;0.60;0.20;;;17.80;1.00;;;;;;5030686;28;20473;-68
2022/06/28 03:53:14;;;;;;;0.60;0.10;;;17.70;1.00;;;;;;5033765;28;20464;-67
2022/06/28 03:55:41;;;;;;;0.70;0.33;;;17.70;1.00;;;;;;5032574;28;20969;-68
2022/06/28 03:58:09;;;;;;;0.60;0.10;;;17.80;1.00;;;;;;5033448;28;20439;-68
2022/06/28 04:00:38;;;;;;;0.60;0.10;;;17.90;1.00;;;;;;5024005;28;21142;-68
2022/06/28 04:03:06;;;;;;;0.60;0.10;;;18.00;1.00;;;;;;5030975;28;20463;-68
2022/06/28 04:05:34;;;;;;;0.60;0.20;;;18.00;1.00;;;;;;5032121;28;20569;-69
2022/06/28 04:08:02;;;;;;;0.60;0.20;;;18.10;1.00;;;;;;5033585;28;20444;-69
2022/06/28 04:10:30;;;;;;;0.60;0.20;;;18.20;1.00;;;;;;5033540;28;20441;-67
2022/06/28 04:12:58;;;;;;;0.60;0.20;;;18.40;1.00;;;;;;5027629;28;20475;-66
2022/06/28 04:15:26;;;;;;;0.60;0.20;;;18.40;1.00;;;;;;5025852;28;20455;-67
2022/06/28 04:17:55;;;;;;;0.60;0.10;;;18.50;1.00;;;;;;5031752;28;20443;-72
2022/06/28 04:20:23;;;;;;;0.60;0.20;;;18.60;1.00;;;;;;5032965;28;20435;-70
2022/06/28 04:22:51;;;;;;;0.60;0.10;;;18.70;1.00;;;;;;5032788;28;20464;-69
2022/06/28 04:25:19;;;;;;;0.60;0.10;;;18.70;1.00;;;;;;5031857;28;20482;-69
2022/06/28 04:27:47;;;;;;;0.60;0.20;;;18.70;1.00;;;;;;5040895;28;20443;-68
2022/06/28 04:30:15;;;;;;;0.60;0.10;;;18.70;1.00;;;;;;5050987;28;20515;-70
2022/06/28 04:32:43;;;;;;;0.60;0.10;;;18.70;1.00;;;;;;5027497;28;20463;-66
2022/06/28 04:35:13;;;;;;;0.60;0.10;;;18.70;1.00;;;;;;5024444;28;20930;-70
2022/06/28 04:37:41;;;;;;;0.80;0.80;;;18.80;1.00;;;;;;5029758;28;20539;-71
2022/06/28 04:40:09;;;;;;;0.60;0.10;;;19.10;1.00;;;;;;5023623;28;20452;-68
2022/06/28 04:42:37;;;;;;;0.60;0.10;;;19.20;1.00;;;;;;5015290;28;20455;-70
2022/06/28 04:45:07;;;;;;;0.60;0.10;;;19.30;1.00;;;;;;5020951;28;20603;-68
2022/06/28 04:47:36;;;;;;;0.60;0.20;;;19.30;1.00;;;;;;5032186;28;20443;-69
2022/06/28 04:50:04;;;;;;;0.70;0.20;;;19.30;1.00;;;;;;5032444;28;20826;-69
2022/06/28 04:52:34;;;;;;;0.60;0.10;;;19.20;1.00;;;;;;5032379;28;20447;-69
2022/06/28 04:55:02;;;;;;;0.60;0.20;;;19.20;1.00;;;;;;5030745;28;20541;-68
2022/06/28 04:57:30;;;;;;;0.60;0.10;;;;;;;;;;5042189;28;20439;-69
2022/06/28 04:59:58;;;;;;;0.60;0.20;;;19.20;1.00;;;;;;5046224;28;20457;-69
2022/06/28 05:02:26;;;;;;;0.60;0.10;;;19.20;1.00;;;;;;5042224;28;20443;-68
2022/06/28 05:04:54;;;;;;;0.60;0.10;;;19.20;1.00;;;;;;5041062;28;20472;-68
2022/06/28 05:07:21;;;;;;;0.60;0.20;;;19.10;1.00;;;;;;5031629;28;20439;-68
2022/06/28 05:09:51;;;;;;;0.60;0.10;;;19.00;1.00;;;;;;5031752;28;20455;-71
2022/06/28 05:12:18;;;;;;;0.60;0.10;;;19.00;1.00;;;;;;5041279;28;20443;-70
2022/06/28 05:14:50;;;;;;;0.60;0.20;;;19.00;1.00;;;;;;5046269;28;20474;-70
2022/06/28 05:17:18;;;;;;;0.60;0.20;;;19.00;1.00;;;;;;5033814;28;20451;-70
2022/06/28 05:19:48;;;;;;;0.60;0.13;;;19.10;1.00;;;;;;5031749;28;20447;-68
2022/06/28 05:22:16;;;;;;;0.60;0.10;;;19.00;1.00;;;;;;5040328;28;20471;-69
2022/06/28 05:24:44;;;;;;;0.60;0.10;;;19.10;1.00;;;;;;5041628;28;20475;-69
2022/06/28 05:27:14;;;;;;;0.60;0.10;;;19.10;1.00;;;;;;5034734;28;20439;-71
2022/06/28 05:29:41;;;;;;;0.60;0.20;;;19.20;1.00;;;;;;5051470;28;20442;-69
2022/06/28 05:32:10;;;;;;;0.60;0.13;;;19.10;1.00;;;;;;5051567;28;20445;-69
2022/06/28 05:34:37;;;;;;;0.60;0.20;;;19.20;1.00;;;;;;5042773;28;20791;-69
2022/06/28 05:37:07;;;;;;;0.60;0.10;;;;;;;;;;5039381;28;20457;-68
2022/06/28 05:39:35;;;;;;;0.60;0.10;;;19.20;1.00;;;;;;5031711;28;20447;-69
2022/06/28 05:42:03;;;;;;;0.60;0.10;;;19.20;1.00;;;;;;5031283;28;20464;-68
2022/06/28 05:44:32;;;;;;;0.60;0.10;;;18.40;1.00;;;;;;5028103;28;20475;-69
2022/06/28 05:47:00;;;;;;;0.60;0.10;;;19.20;1.00;;;;;;5013675;28;20455;-70
2022/06/28 05:49:28;;;;;;;0.60;0.10;;;19.20;1.00;;;;;;5023089;28;20463;-67
2022/06/28 05:51:55;;;;;;;0.60;0.10;;;19.30;1.00;;;;;;5022415;28;20970;-69
2022/06/28 05:54:23;;;;;;;0.60;0.10;;;19.40;1.00;;;;;;5010999;28;20467;-69
2022/06/28 05:56:51;;;;;;;0.60;0.10;;;19.40;1.00;;;;;;5010779;28;20440;-69
2022/06/28 05:59:19;;;;;;;0.60;0.10;;;19.50;1.00;;;;;;5011783;28;20555;-69
2022/06/28 06:01:48;;;;;;;0.60;0.20;;;19.60;1.00;;;;;;5011566;28;20452;-70
2022/06/28 06:04:16;;;;;;;0.60;0.10;;;19.60;1.00;;;;;;5013425;28;20556;-68
2022/06/28 06:06:44;;;;;;;0.60;0.10;;;19.60;1.00;;;;;;5030759;28;20449;-69
2022/06/28 06:09:12;;;;;;;0.60;0.10;;;19.60;1.00;;;;;;5031645;28;20645;-69
2022/06/28 06:11:40;;;;;;;0.60;0.10;;;19.60;1.00;;;;;;5035778;28;20458;-70
2022/06/28 06:14:08;;;;;;;0.60;0.20;;;19.50;1.00;;;;;;5026703;28;20515;-71
2022/06/28 06:16:38;;;;;;;0.60;0.10;;;19.50;1.00;;;;;;5016074;28;20478;-71
2022/06/28 06:19:07;;;;;;;0.60;0.10;;;19.50;1.00;;;;;;5036549;28;20942;-71
2022/06/28 06:21:35;;;;;;;0.60;0.10;;;19.60;1.00;;;;;;5035131;28;20443;-72
2022/06/28 06:24:03;;;;;;;0.60;0.20;;;19.80;1.00;;;;;;5031926;28;20989;-71
2022/06/28 06:26:33;;;;;;;0.60;0.10;;;;;;;;;;5011950;28;20774;-71
2022/06/28 06:29:01;;;;;;;0.60;0.20;;;19.90;1.00;;;;;;5049763;28;20446;-70
2022/06/28 06:31:29;;;;;;;0.60;0.10;;;20.00;99.90;;;;;;5056844;28;20442;-72
2022/06/28 06:33:57;;;;;;;0.60;0.10;;;20.00;99.90;;;;;;5056012;28;20981;-71
2022/06/28 06:36:26;;;;;;;0.60;0.10;;;20.00;99.90;;;;;;5035455;28;20447;-71
2022/06/28 06:38:54;;;;;;;0.60;0.17;;;20.00;99.90;;;;;;5036377;28;20438;-71
2022/06/28 06:41:22;;;;;;;0.60;0.10;;;20.00;99.90;;;;;;5036393;28;20886;-69
2022/06/28 06:43:52;;;;;;;0.60;0.10;;;20.00;99.90;;;;;;5037030;28;20475;-70
2022/06/28 06:46:20;;;;;;;0.60;0.10;;;;;;;;;;5037071;28;20520;-71
2022/06/28 06:48:50;;;;;;;0.60;0.10;;;20.00;99.90;;;;;;5051077;28;20442;-71
2022/06/28 06:51:18;;;;;;;0.60;0.10;;;20.00;99.90;;;;;;5057877;28;20465;-73
2022/06/28 06:53:48;;;;;;;0.60;0.10;;;20.10;99.90;;;;;;5057866;28;20480;-71
2022/06/28 06:56:17;;;;;;;0.60;0.10;;;20.10;99.90;;;;;;5038986;28;20583;-71
2022/06/28 06:58:45;;;;;;;0.60;0.10;;;20.10;99.90;;;;;;5035141;28;20455;-72
2022/06/28 07:01:13;;;;;;;0.60;0.10;;;20.10;99.90;;;;;;5017945;28;20531;-71
2022/06/28 07:04:01;;;;;;;0.60;0.10;;;20.20;99.90;;;;;;5018291;28;20464;-71
2022/06/28 07:06:29;;;;;;;0.60;0.10;;;20.20;99.90;;;;;;5017082;28;20480;-71
2022/06/28 07:08:59;;;;;;;0.60;0.10;;;20.20;99.90;;;;;;5018631;28;20455;-71
2022/06/28 07:11:27;;;;;;;0.60;0.10;;;20.30;99.90;;;;;;5019935;28;20784;-71
2022/06/28 07:13:55;;;;;;;0.60;0.10;;;20.30;99.90;;;;;;5017344;28;20464;-71
2022/06/28 07:16:23;;;;;;;0.60;0.10;;;20.30;99.90;;;;;;5017502;28;20440;-72
2022/06/28 07:18:57;;;;;;;0.60;0.10;;;20.40;99.90;;;;;;5020930;28;20483;-71
2022/06/28 07:21:25;;;;;;;0.60;0.10;;;20.40;99.90;;;;;;5038162;28;20443;-72
2022/06/28 07:23:53;;;;;;;0.60;0.10;;;20.50;99.90;;;;;;5042003;28;20463;-72
2022/06/28 07:26:23;;;;;;;0.60;0.20;;;20.40;99.90;;;;;;5049462;28;20479;-72
2022/06/28 07:28:51;;;;;;;0.60;0.10;;;20.50;99.90;;;;;;5039973;28;20439;-72
2022/06/28 07:31:19;;;;;;;0.60;0.20;;;20.50;99.90;;;;;;5037286;28;20453;-71
2022/06/28 07:33:47;;;;;;;0.60;0.10;;;20.50;99.90;;;;;;5037865;28;20471;-71
2022/06/28 07:36:16;;;;;;;0.60;0.30;;;20.60;99.90;;;;;;5037465;28;20446;-71
2022/06/28 07:38:44;;;;;;;0.60;0.10;;;20.70;99.90;;;;;;5039132;28;20491;-72
2022/06/28 07:41:12;;;;;;;0.60;0.10;;;20.70;99.90;;;;;;5019290;28;20565;-72
2022/06/28 07:43:41;;;;;;;0.60;0.10;;;20.70;99.90;;;;;;5020055;28;20474;-71
2022/06/28 07:46:13;;;;;;;0.60;0.20;;;20.80;99.90;;;;;;5018608;28;20484;-72
2022/06/28 07:48:41;;;;;;;0.60;0.10;;;20.80;99.90;;;;;;5018660;28;20969;-72
2022/06/28 07:53:54;;;;;;;0.60;0.10;;;20.80;99.90;;;;;;5038544;28;20467;-71
2022/06/28 07:56:22;;;;;;;0.60;0.20;;;;;;;;;;5039914;28;20439;-72
2022/06/28 07:58:52;;;;;;;0.60;0.10;;;20.90;99.90;;;;;;5035768;28;20460;-72
2022/06/28 08:01:20;;;;;;;1.00;0.70;;;21.00;99.90;;;;;;5045996;28;20485;-71
2022/06/28 08:03:48;;;;;;;0.60;0.10;;;;;;;;;;5037587;28;20502;-71
2022/06/28 08:06:17;;;;;;;0.60;0.10;;;;;;;;;;5036731;28;20471;-72
2022/06/28 08:08:44;;;;;;;0.60;0.10;;;21.00;99.90;;;;;;5037607;28;20447;-71
2022/06/28 08:11:12;;;;;;;0.60;0.10;;;21.00;99.90;;;;;;5037165;28;20853;-72
2022/06/28 08:13:40;;;;;;;0.60;0.10;;;21.00;99.90;;;;;;5035416;28;20529;-71
2022/06/28 08:16:10;;;;;;;0.60;0.10;;;21.20;99.90;;;;;;5045397;28;20984;-71
2022/06/28 08:18:38;;;;;;;0.63;0.20;;;21.20;99.90;;;;;;5050112;28;20466;-71
2022/06/28 08:21:06;;;;;;;1.63;1.53;;;21.20;99.90;;;;;;5045511;28;20962;-71
2022/06/28 08:23:34;;;;;;;0.60;0.10;;;21.20;99.90;;;;;;5035740;28;20489;-71
2022/06/28 08:26:01;;;;;;;0.60;0.10;;;21.10;99.90;;;;;;5044761;28;20474;-69
2022/06/28 08:28:29;;;;;;;0.60;0.10;;;21.10;99.90;;;;;;5045974;28;20446;-70
2022/06/28 08:30:58;;;;;;;0.60;0.10;;;;;;;;;;5046323;28;20450;-70
2022/06/28 08:33:27;;;;;;;0.60;0.20;;;21.40;99.90;;;;;;5048911;28;20512;-69
2022/06/28 08:35:55;;;;;;;0.70;0.20;;;21.40;99.90;;;;;;5043861;28;20441;-71
2022/06/28 08:38:23;;;;;;;0.70;0.10;;;;;;;;;;5048127;28;20547;-71
2022/06/28 08:40:52;;;;;;;0.70;0.20;;;21.60;99.90;;;;;;5043315;28;20539;-71
2022/06/28 08:43:21;;;;;;;0.60;0.10;;;21.60;99.90;;;;;;5041700;28;20478;-71
2022/06/28 08:45:49;;;;;;;0.70;0.10;;;21.60;99.90;;;;;;5051892;28;20482;-70
2022/06/28 08:48:22;;;;;;;0.70;0.10;;;21.60;99.90;;;;;;5048546;28;20455;-71
2022/06/28 08:50:54;;;;;;;0.70;0.10;;;21.60;99.90;;;;;;5043816;28;20452;-71
2022/06/28 08:53:23;;;;;;;0.70;0.10;;;21.70;99.90;;;;;;5031827;28;20478;-71
2022/06/28 08:55:52;;;;;;;0.70;0.20;;;21.70;99.90;;;;;;5024324;28;20523;-70
2022/06/28 08:58:21;;;;;;;0.70;0.20;;;21.70;99.90;;;;;;5014029;28;20452;-71
2022/06/28 09:00:49;;;;;;;0.70;0.20;;;;;;;;;;5032212;28;20454;-71
2022/06/28 09:03:18;;;;;;;0.70;0.20;;;21.70;99.90;;;;;;5050015;28;20549;-71
2022/06/28 09:05:47;;;;;;;0.70;0.10;;;21.70;99.90;;;;;;5039587;28;20497;-70
2022/06/28 09:08:16;;;;;;;0.70;0.10;;;21.80;99.90;;;;;;5032404;28;20451;-72
2022/06/28 09:10:44;;;;;;;0.70;0.10;;;21.90;99.90;;;;;;5031705;28;20966;-71
2022/06/28 09:13:18;;;;;;;0.70;0.10;;;21.90;99.90;;;;;;5032147;28;20521;-70
2022/06/28 09:15:53;;;;;;;0.70;0.10;;;21.90;99.90;;;;;;5031839;28;20526;-70
2022/06/28 09:18:22;;;;;;;0.70;0.10;;;21.90;99.90;;;;;;5026032;28;20559;-70
2022/06/28 09:20:56;;;;;;;0.70;0.17;;;21.90;99.90;;;;;;5013739;28;20455;-70
2022/06/28 09:23:28;;;;;;;0.70;0.10;;;22.00;99.90;;;;;;5012010;28;20464;-70
2022/06/28 09:25:58;;;;;;;0.70;0.10;;;22.00;99.90;;;;;;5013876;28;20447;-71
2022/06/28 09:28:31;;;;;;;0.70;0.10;;;22.10;99.90;;;;;;5041294;28;20449;-70
2022/06/28 09:31:20;;;;;;;0.70;0.10;;;22.20;99.90;;;;;;5034373;28;20562;-70
2022/06/28 09:34:02;;;;;;;0.70;0.20;;;22.20;99.90;;;;;;5028149;28;20467;-71
2022/06/28 09:36:31;;;;;;;0.70;0.10;;;22.20;99.90;;;;;;5030780;28;20443;-70
2022/06/28 09:39:11;;;;;;;0.70;0.10;;;22.40;99.90;;;;;;5031769;28;20448;-70
2022/06/28 09:41:38;;;;;;;0.70;0.10;;;22.40;99.90;;;;;;5022851;28;20454;-70
2022/06/28 09:44:28;;;;;;;0.70;0.10;;;22.50;99.90;;;;;;5022783;28;20460;-70
2022/06/28 09:46:57;;;;;;;0.70;0.10;;;22.50;99.90;;;;;;5030661;28;20860;-69
2022/06/28 09:49:29;;;;;;;0.70;0.20;;;22.50;99.90;;;;;;5031780;28;20551;-70
2022/06/28 09:51:58;;;;;;;0.70;0.20;;;22.60;99.90;;;;;;5013454;28;20528;-70
2022/06/28 09:54:29;;;;;;;0.70;0.10;;;22.60;99.90;;;;;;5020978;28;20470;-70
2022/06/28 09:56:58;;;;;;;0.70;0.10;;;22.80;99.90;;;;;;5030862;28;20849;-71
2022/06/28 09:59:27;;;;;;;0.70;0.10;;;22.70;99.90;;;;;;5023204;28;20943;-69
2022/06/28 10:01:57;;;;;;;0.70;0.10;;;22.80;99.90;;;;;;5011516;28;20526;-70
2022/06/28 10:04:27;;;;;;;0.70;0.10;;;22.90;99.90;;;;;;5012745;28;20504;-71
2022/06/28 10:06:55;;;;;;;0.70;0.10;;;22.90;99.90;;;;;;5015179;28;20943;-70
2022/06/28 10:09:24;;;;;;;0.70;0.10;;;22.90;99.90;;;;;;5020421;28;20969;-69
2022/06/28 10:17:48;;;;;;;0.77;0.40;;;23.00;99.90;;;;;;5020521;28;20509;-69
2022/06/28 10:20:19;;;;;;;0.70;0.20;;;23.00;99.90;;;;;;5030554;28;20451;-70
2022/06/28 10:22:48;;;;;;;0.70;0.20;;;23.00;99.90;;;;;;5023205;28;20460;-71
2022/06/28 10:25:22;;;;;;;0.70;0.20;;;23.10;99.90;;;;;;5023866;28;20519;-69
2022/06/28 10:27:52;;;;;;;0.70;0.20;;;;;;;;;;5035893;28;20500;-69
2022/06/28 10:30:23;;;;;;;0.70;0.20;;;23.20;99.90;;;;;;5037041;28;20451;-71
2022/06/28 10:32:55;;;;;;;0.70;0.10;;;23.30;99.90;;;;;;5034632;28;20463;-69
2022/06/28 10:35:54;;;;;;;0.70;0.20;;;23.30;99.90;;;;;;5034601;28;20453;-70
2022/06/28 10:38:23;;;;;;;0.70;0.20;;;23.40;99.90;;;;;;5033528;28;20817;-69
2022/06/28 10:40:51;;;;;;;0.70;0.20;;;23.40;99.90;;;;;;5015100;28;20487;-71
2022/06/28 10:43:46;;;;;;;0.70;0.10;;;23.60;99.90;;;;;;5014968;28;20773;-71
2022/06/28 10:46:15;;;;;;;0.70;0.20;;;23.60;99.90;;;;;;5014281;28;20787;-70
2022/06/28 10:49:09;;;;;;;0.70;0.10;;;23.70;99.90;;;;;;5017720;28;20573;-70
2022/06/28 10:51:42;;;;;;;0.70;0.20;;;23.80;99.90;;;;;;5031402;28;20440;-71
2022/06/28 10:54:16;;;;;;;0.70;0.10;;;23.90;99.90;;;;;;5034528;28;20478;-69
2022/06/28 10:56:46;;;;;;;0.70;0.20;;;23.80;99.90;;;;;;5031645;28;20514;-69
2022/06/28 10:59:17;;;;;;;0.70;0.20;;;23.80;99.90;;;;;;5027055;28;20828;-70
2022/06/28 11:01:57;;;;;;;0.70;0.10;;;23.90;99.90;;;;;;5014524;28;20451;-69
2022/06/28 11:04:28;;;;;;;0.70;0.10;;;23.90;99.90;;;;;;5014265;28;21036;-70
2022/06/28 11:06:59;;;;;;;0.70;0.10;;;24.00;99.90;;;;;;5013855;28;20448;-72
2022/06/28 11:10:04;;;;;;;0.70;0.20;;;24.10;99.90;;;;;;5025549;28;20448;-70
2022/06/28 11:12:40;;;;;;;0.70;0.10;;;24.10;99.90;;;;;;5010252;28;20551;-70
2022/06/28 11:15:12;;;;;;;0.70;0.20;;;24.20;99.90;;;;;;5013644;28;20447;-68
2022/06/28 11:17:42;;;;;;;0.70;0.10;;;24.20;99.90;;;;;;5013934;28;20432;-71
2022/06/28 11:20:12;;;;;;;0.70;0.20;;;24.20;99.90;;;;;;5031094;28;20443;-69
2022/06/28 11:22:42;;;;;;;0.70;0.20;;;24.30;99.90;;;;;;5038872;28;20451;-70
2022/06/28 11:25:12;;;;;;;0.70;0.20;;;24.30;99.90;;;;;;5037621;28;20443;-71
2022/06/28 11:27:47;;;;;;;0.70;0.20;;;24.40;99.90;;;;;;5040125;28;20474;-70
2022/06/28 11:30:17;;;;;;;0.70;0.10;;;24.40;99.90;;;;;;5032263;28;20533;-68
2022/06/28 11:32:48;;;;;;;0.70;0.10;;;24.40;99.90;;;;;;5013519;28;20555;-70
2022/06/28 11:35:18;;;;;;;0.70;0.10;;;24.40;99.90;;;;;;5013532;28;20534;-68
2022/06/28 11:37:49;;;;;;;0.70;0.10;;;24.40;99.90;;;;;;5013999;28;20433;-69
2022/06/28 11:40:19;;;;;;;0.70;0.10;;;24.40;99.90;;;;;;5031408;28;20447;-68
2022/06/28 11:42:48;;;;;;;0.70;0.20;;;24.40;99.90;;;;;;5033187;28;20472;-70
2022/06/28 11:45:18;;;;;;;0.70;0.10;;;24.40;99.90;;;;;;5032897;28;20558;-69
2022/06/28 11:47:46;;;;;;;0.70;0.20;;;24.40;99.90;;;;;;5032658;28;20482;-70
2022/06/28 11:50:17;;;;;;;0.70;0.10;;;24.50;99.90;;;;;;5018634;28;20818;-70
2022/06/28 11:52:47;;;;;;;0.70;0.10;;;24.60;99.90;;;;;;5033451;28;20467;-69
2022/06/28 11:55:15;;;;;;;0.70;0.20;;;24.60;99.90;;;;;;5033636;28;20471;-70
2022/06/28 11:57:44;;;;;;;0.70;0.13;;;24.60;99.90;;;;;;5032917;28;20459;-69
2022/06/28 12:00:14;;;;;;;0.70;0.10;;;24.60;99.90;;;;;;5032023;28;20486;-69
2022/06/28 12:02:47;;;;;;;0.70;0.20;;;24.70;99.90;;;;;;5033328;28;20471;-69
2022/06/28 12:05:15;;;;;;;0.70;0.20;;;24.70;99.90;;;;;;5033057;28;20447;-69
2022/06/28 12:07:44;;;;;;;0.70;0.20;;;24.70;99.90;;;;;;5033049;28;20490;-71
2022/06/28 12:10:23;;;;;;;0.70;0.20;;;24.70;99.90;;;;;;5016818;28;20456;-69
2022/06/28 12:12:51;;;;;;;0.70;0.20;;;24.70;99.90;;;;;;5013076;28;20851;-70
2022/06/28 12:15:31;;;;;;;0.70;0.10;;;24.80;99.90;;;;;;5014049;28;20570;-70
2022/06/28 12:18:04;;;;;;;0.70;0.20;;;24.80;99.90;;;;;;5013402;28;20440;-70
2022/06/28 12:20:33;;;;;;;0.70;0.10;;;24.80;99.90;;;;;;5031858;28;20462;-69
2022/06/28 12:23:05;;;;;;;0.70;0.10;;;24.80;99.90;;;;;;5031759;28;20460;-69
2022/06/28 12:25:33;;;;;;;0.70;0.10;;;24.80;99.90;;;;;;5012752;28;20476;-69
2022/06/28 12:28:02;;;;;;;0.70;0.10;;;24.90;99.90;;;;;;5032474;28;21165;-68
2022/06/28 12:30:30;;;;;;;0.70;0.10;;;25.00;99.90;;;;;;5027060;28;20539;-70
2022/06/28 12:32:59;;;;;;;0.70;0.20;;;25.10;99.90;;;;;;5018095;28;20483;-70
2022/06/28 12:35:29;;;;;;;0.70;0.20;;;25.10;99.90;;;;;;5013137;28;20939;-69
2022/06/28 12:37:56;;;;;;;0.70;0.10;;;25.20;99.90;;;;;;5012125;28;20923;-68
2022/06/28 12:40:25;;;;;;;0.70;0.20;;;25.20;99.90;;;;;;5013636;28;20467;-70
2022/06/28 12:42:53;;;;;;;0.70;0.20;;;25.40;99.90;;;;;;5013481;28;20563;-70
2022/06/28 12:45:21;;;;;;;0.70;0.10;;;25.40;99.90;;;;;;5012768;28;20448;-69
2022/06/28 12:47:49;;;;;;;0.70;0.10;;;25.40;99.90;;;;;;5012208;28;20448;-68
2022/06/28 12:50:17;;;;;;;0.70;0.10;;;25.40;99.90;;;;;;5028456;28;20458;-68
2022/06/28 12:52:48;;;;;;;0.70;0.20;;;25.40;99.90;;;;;;5032240;28;20482;-70
2022/06/28 12:55:16;;;;;;;0.70;0.10;;;25.40;99.90;;;;;;5032206;28;20459;-70
2022/06/28 12:57:44;;;;;;;0.70;0.13;;;25.40;99.90;;;;;;5031272;28;20447;-70
2022/06/28 13:00:14;;;;;;;0.70;0.17;;;25.40;99.90;;;;;;5027720;28;20853;-70
2022/06/28 13:02:48;;;;;;;0.70;0.10;;;;;;;;;;5031822;28;20463;-69
2022/06/28 13:05:16;;;;;;;0.70;0.10;;;;;;;;;;5031166;28;20456;-70
2022/06/28 13:07:45;;;;;;;0.70;0.20;;;25.30;99.90;;;;;;5031645;28;20447;-69
2022/06/28 13:10:14;;;;;;;0.70;0.10;;;25.40;99.90;;;;;;5032379;28;20451;-69
2022/06/28 13:12:43;;;;;;;0.70;0.20;;;25.50;99.90;;;;;;5032094;28;20463;-70
2022/06/28 13:15:11;;;;;;;0.70;0.10;;;25.40;99.90;;;;;;5018361;28;20460;-70
2022/06/28 13:17:39;;;;;;;0.70;0.20;;;25.60;99.90;;;;;;5011565;28;20452;-70
2022/06/28 13:20:08;;;;;;;0.70;0.20;;;25.60;99.90;;;;;;5012209;28;20448;-69
2022/06/28 13:22:55;;;;;;;0.70;0.10;;;25.60;99.90;;;;;;5033990;28;20565;-71
2022/06/28 13:25:25;;;;;;;0.70;0.10;;;25.70;99.90;;;;;;5020733;28;20449;-71
2022/06/28 13:27:53;;;;;;;0.70;0.10;;;25.70;99.90;;;;;;5028848;28;20801;-69